createdAt,value
2018-07-30T00:00:33.605Z,8.47
2018-07-30T00:03:02.208Z,8.90
2018-07-30T00:05:30.202Z,8.87
2018-07-30T00:07:59.103Z,9.23
2018-07-30T00:10:27.527Z,7.63
2018-07-30T00:12:55.950Z,8.40
2018-07-30T00:15:24.173Z,10.13
2018-07-30T00:17:52.260Z,9.70
2018-07-30T00:20:20.908Z,9.30
2018-07-30T00:22:49.069Z,9.13
2018-07-30T00:25:16.969Z,7.97
2018-07-30T00:27:45.012Z,8.37
2018-07-30T00:30:13.245Z,8.53
2018-07-30T00:32:42.011Z,8.63
2018-07-30T00:35:10.276Z,8.47
2018-07-30T00:37:38.461Z,8.70
2018-07-30T00:40:09.324Z,9.23
2018-07-30T00:42:37.360Z,9.07
2018-07-30T00:45:05.326Z,8.70
2018-07-30T00:47:33.342Z,9.67
2018-07-30T00:50:01.304Z,8.67
2018-07-30T00:52:29.300Z,9.43
2018-07-30T00:54:57.230Z,8.40
2018-07-30T00:57:25.675Z,9.47
2018-07-30T00:59:53.812Z,8.77
2018-07-30T01:02:21.748Z,9.00
2018-07-30T01:04:50.766Z,9.40
2018-07-30T01:07:19.639Z,9.40
2018-07-30T01:09:49.838Z,9.07
2018-07-30T01:12:18.503Z,8.43
2018-07-30T01:14:46.678Z,9.33
2018-07-30T01:17:15.650Z,9.47
2018-07-30T01:19:43.813Z,9.37
2018-07-30T01:22:12.421Z,8.77
2018-07-30T01:24:41.094Z,8.57
2018-07-30T01:27:09.140Z,9.27
2018-07-30T01:29:37.979Z,9.73
2018-07-30T01:32:07.848Z,9.67
2018-07-30T01:34:35.729Z,9.03
2018-07-30T01:37:03.597Z,9.97
2018-07-30T01:39:32.063Z,9.13
2018-07-30T01:42:00.176Z,9.50
2018-07-30T01:44:28.450Z,9.57
2018-07-30T01:46:56.923Z,9.63
2018-07-30T01:49:25.227Z,9.47
2018-07-30T01:51:53.936Z,11.13
2018-07-30T01:54:23.176Z,12.93
2018-07-30T01:56:52.090Z,12.90
2018-07-30T01:59:20.912Z,13.47
2018-07-30T02:01:50.287Z,13.40
2018-07-30T02:04:18.491Z,12.50
2018-07-30T02:06:46.805Z,12.73
2018-07-30T02:09:14.844Z,13.37
2018-07-30T02:11:43.091Z,13.70
2018-07-30T02:14:12.316Z,14.60
2018-07-30T02:16:40.427Z,15.43
2018-07-30T02:19:08.415Z,14.70
2018-07-30T02:21:37.002Z,14.07
2018-07-30T02:24:05.247Z,13.03
2018-07-30T02:26:33.965Z,13.73
2018-07-30T02:29:02.328Z,11.87
2018-07-30T02:31:30.342Z,12.67
2018-07-30T02:33:58.514Z,11.50
2018-07-30T02:36:27.324Z,11.07
2018-07-30T02:38:55.507Z,10.60
2018-07-30T02:41:23.469Z,11.17
2018-07-30T02:43:52.257Z,11.43
2018-07-30T02:46:20.588Z,12.50
2018-07-30T02:48:49.285Z,11.70
2018-07-30T02:51:19.994Z,12.60
2018-07-30T02:53:48.193Z,11.63
2018-07-30T02:56:16.492Z,12.03
2018-07-30T02:58:44.468Z,13.27
2018-07-30T03:01:12.999Z,12.47
2018-07-30T03:03:41.552Z,12.17
2018-07-30T03:06:10.437Z,11.67
2018-07-30T03:18:24.955Z,11.83
2018-07-30T03:20:53.118Z,10.83
2018-07-30T03:23:21.111Z,11.40
2018-07-30T03:25:49.159Z,11.83
2018-07-30T03:28:17.754Z,12.10
2018-07-30T03:30:46.509Z,13.87
2018-07-30T03:33:15.057Z,12.30
2018-07-30T03:35:43.117Z,12.67
2018-07-30T03:38:11.351Z,12.47
2018-07-30T03:40:41.368Z,13.30
2018-07-30T03:43:09.697Z,12.90
2018-07-30T03:45:38.480Z,13.90
2018-07-30T03:48:06.540Z,14.60
2018-07-30T03:50:34.626Z,13.83
2018-07-30T03:53:02.848Z,13.43
2018-07-30T03:55:30.879Z,13.40
2018-07-30T03:57:59.011Z,13.90
2018-07-30T04:00:31.469Z,13.33
2018-07-30T04:02:59.815Z,12.13
2018-07-30T04:18:27.800Z,11.87
2018-07-30T04:20:56.151Z,10.37
2018-07-30T04:23:24.683Z,10.20
2018-07-30T04:25:53.630Z,10.27
2018-07-30T04:28:22.131Z,9.67
2018-07-30T04:30:50.552Z,9.73
2018-07-30T04:33:18.580Z,9.57
2018-07-30T04:35:46.389Z,10.72
2018-07-30T04:38:15.132Z,10.30
2018-07-30T04:40:43.475Z,9.93
2018-07-30T04:43:12.599Z,9.60
2018-07-30T04:45:41.047Z,10.20
2018-07-30T04:48:09.133Z,10.00
2018-07-30T04:50:38.063Z,9.28
2018-07-30T04:53:07.155Z,10.05
2018-07-30T04:55:35.719Z,10.58
2018-07-30T04:58:03.863Z,10.88
2018-07-30T05:00:32.448Z,11.15
2018-07-30T05:03:04.467Z,10.63
2018-07-30T05:05:32.533Z,10.43
2018-07-30T05:08:00.608Z,11.40
2018-07-30T05:10:28.524Z,9.45
2018-07-30T05:12:56.514Z,11.43
2018-07-30T05:15:24.912Z,11.10
2018-07-30T05:17:53.275Z,10.13
2018-07-30T05:20:21.309Z,10.60
2018-07-30T05:22:49.215Z,11.22
2018-07-30T05:25:17.394Z,11.28
2018-07-30T05:27:45.405Z,10.35
2018-07-30T05:30:13.261Z,11.22
2018-07-30T05:32:41.282Z,10.88
2018-07-30T05:35:09.201Z,10.75
2018-07-30T05:37:37.280Z,12.07
2018-07-30T05:40:05.586Z,10.25
2018-07-30T05:42:34.052Z,11.33
2018-07-30T05:45:02.793Z,12.80
2018-07-30T05:47:31.383Z,12.28
2018-07-30T05:49:59.818Z,12.25
2018-07-30T05:52:30.035Z,12.90
2018-07-30T05:54:57.960Z,12.25
2018-07-30T05:57:25.940Z,11.78
2018-07-30T05:59:54.026Z,11.50
2018-07-30T06:02:22.108Z,11.45
2018-07-30T06:04:50.084Z,10.90
2018-07-30T06:07:18.044Z,11.35
2018-07-30T06:09:50.153Z,12.63
2018-07-30T06:12:18.311Z,12.78
2018-07-30T06:14:46.359Z,12.03
2018-07-30T06:17:15.759Z,11.48
2018-07-30T06:19:43.680Z,12.15
2018-07-30T06:22:11.619Z,12.20
2018-07-30T06:24:39.563Z,11.68
2018-07-30T06:27:07.610Z,12.30
2018-07-30T06:29:36.647Z,13.75
2018-07-30T06:32:04.575Z,14.05
2018-07-30T06:34:32.463Z,12.23
2018-07-30T06:37:01.363Z,13.62
2018-07-30T06:39:29.448Z,13.93
2018-07-30T06:41:57.767Z,12.10
2018-07-30T06:44:25.748Z,12.10
2018-07-30T06:46:53.707Z,12.98
2018-07-30T06:49:22.754Z,13.08
2018-07-30T06:51:51.300Z,11.73
2018-07-30T06:54:19.197Z,12.30
2018-07-30T06:56:47.164Z,13.95
2018-07-30T06:59:15.764Z,13.80
2018-07-30T07:01:44.471Z,12.28
2018-07-30T07:13:57.300Z,14.10
2018-07-30T07:16:25.614Z,11.93
2018-07-30T07:18:53.889Z,12.07
2018-07-30T07:21:21.898Z,12.00
2018-07-30T07:23:49.824Z,11.88
2018-07-30T07:26:18.265Z,11.70
2018-07-30T07:28:47.174Z,11.73
2018-07-30T07:31:15.178Z,10.28
2018-07-30T07:33:43.302Z,11.05
2018-07-30T07:36:11.287Z,11.00
2018-07-30T07:38:40.414Z,9.68
2018-07-30T07:41:08.654Z,9.40
2018-07-30T07:43:36.527Z,9.73
2018-07-30T07:46:14.355Z,9.73
2018-07-30T07:48:42.307Z,9.08
2018-07-30T07:51:10.273Z,8.98
2018-07-30T07:53:38.159Z,8.93
2018-07-30T07:56:06.138Z,8.78
2018-07-30T07:58:34.122Z,8.58
2018-07-30T08:01:02.481Z,8.73
2018-07-30T08:03:30.453Z,7.78
2018-07-30T08:22:15.453Z,7.75
2018-07-30T08:24:44.349Z,7.20
2018-07-30T08:27:13.394Z,6.65
2018-07-30T08:29:42.076Z,6.92
2018-07-30T08:32:10.151Z,6.60
2018-07-30T08:34:38.284Z,6.50
2018-07-30T08:37:06.309Z,7.12
2018-07-30T08:39:34.999Z,7.37
2018-07-30T08:42:02.957Z,7.12
2018-07-30T08:44:30.980Z,7.60
2018-07-30T08:46:59.467Z,7.42
2018-07-30T08:49:28.817Z,7.37
2018-07-30T08:51:57.783Z,7.45
2018-07-30T08:54:26.365Z,7.47
2018-07-30T08:56:54.919Z,7.15
2018-07-30T08:59:24.017Z,7.20
2018-07-30T09:01:52.027Z,7.65
2018-07-30T09:04:20.047Z,8.35
2018-07-30T09:06:53.263Z,8.55
2018-07-30T09:09:27.774Z,8.10
2018-07-30T09:11:56.573Z,7.50
2018-07-30T09:14:24.510Z,7.95
2018-07-30T09:16:52.604Z,7.12
2018-07-30T09:19:20.439Z,7.78
2018-07-30T09:21:48.335Z,7.28
2018-07-30T09:24:16.179Z,8.15
2018-07-30T09:26:44.126Z,7.22
2018-07-30T09:29:12.043Z,7.42
2018-07-30T09:31:40.065Z,7.45
2018-07-30T09:34:08.036Z,7.33
2018-07-30T09:36:35.946Z,7.75
2018-07-30T09:39:04.118Z,7.60
2018-07-30T09:41:33.086Z,7.17
2018-07-30T09:44:01.151Z,6.42
2018-07-30T09:46:30.060Z,6.75
2018-07-30T09:48:58.577Z,7.47
2018-07-30T09:51:26.430Z,7.70
2018-07-30T10:10:09.640Z,6.90
2018-07-30T10:12:37.519Z,6.75
2018-07-30T10:15:05.479Z,6.83
2018-07-30T10:17:33.434Z,6.37
2018-07-30T10:20:01.389Z,6.92
2018-07-30T10:22:29.286Z,6.03
2018-07-30T10:24:57.753Z,6.92
2018-07-30T10:27:26.522Z,6.37
2018-07-30T10:29:55.269Z,5.45
2018-07-30T10:32:23.837Z,6.10
2018-07-30T10:34:52.326Z,5.92
2018-07-30T10:37:20.234Z,6.00
2018-07-30T10:39:47.925Z,6.70
2018-07-30T10:42:16.962Z,5.85
2018-07-30T10:44:44.811Z,6.40
2018-07-30T10:47:12.827Z,5.85
2018-07-30T10:49:40.851Z,6.92
2018-07-30T10:52:09.596Z,5.45
2018-07-30T10:54:37.536Z,5.47
2018-07-30T10:57:06.963Z,5.85
2018-07-30T10:59:34.915Z,5.78
2018-07-30T11:02:03.627Z,5.55
2018-07-30T11:04:31.579Z,6.22
2018-07-30T11:19:59.560Z,5.58
2018-07-30T11:22:27.928Z,5.58
2018-07-30T11:24:55.817Z,5.33
2018-07-30T11:27:24.919Z,5.87
2018-07-30T11:29:53.143Z,5.20
2018-07-30T11:32:21.500Z,6.17
2018-07-30T11:34:49.528Z,5.97
2018-07-30T11:37:18.080Z,5.97
2018-07-30T11:39:46.329Z,5.75
2018-07-30T11:42:14.273Z,5.28
2018-07-30T11:44:42.198Z,5.80
2018-07-30T11:47:10.071Z,5.83
2018-07-30T11:49:38.500Z,5.22
2018-07-30T11:52:07.699Z,6.03
2018-07-30T11:54:35.749Z,5.70
2018-07-30T11:57:03.580Z,5.85
2018-07-30T11:59:32.387Z,5.45
2018-07-30T12:02:00.959Z,5.20
2018-07-30T12:04:29.839Z,5.33
2018-07-30T12:06:57.845Z,5.97
2018-07-30T12:09:25.723Z,5.00
2018-07-30T12:11:53.631Z,5.45
2018-07-30T12:14:22.259Z,5.37
2018-07-30T12:16:50.137Z,5.28
2018-07-30T12:19:18.019Z,5.90
2018-07-30T12:21:45.844Z,5.30
2018-07-30T12:24:13.713Z,5.22
2018-07-30T12:26:41.618Z,5.60
2018-07-30T12:29:10.236Z,6.30
2018-07-30T12:31:38.171Z,5.75
2018-07-30T12:34:06.236Z,5.05
2018-07-30T12:36:34.795Z,5.17
2018-07-30T12:39:02.779Z,5.40
2018-07-30T12:41:30.690Z,5.60
2018-07-30T12:43:58.645Z,5.37
2018-07-30T12:46:26.531Z,5.37
2018-07-30T12:48:54.570Z,5.22
2018-07-30T12:51:22.622Z,5.50
2018-07-30T12:53:50.917Z,5.55
2018-07-30T12:56:18.971Z,5.15
2018-07-30T12:58:47.565Z,5.33
2018-07-30T13:01:15.623Z,5.55
2018-07-30T13:03:44.274Z,5.55
2018-07-30T13:06:12.179Z,5.72
2018-07-30T13:08:40.715Z,5.25
2018-07-30T13:11:09.719Z,5.33
2018-07-30T13:13:37.698Z,5.75
2018-07-30T13:16:06.504Z,5.25
2018-07-30T13:18:34.487Z,5.15
2018-07-30T13:21:02.524Z,5.50
2018-07-30T13:23:30.416Z,5.55
2018-07-30T13:25:58.931Z,5.17
2018-07-30T13:28:27.509Z,5.55
2018-07-30T13:30:55.467Z,5.78
2018-07-30T13:33:23.324Z,5.65
2018-07-30T13:35:51.241Z,5.50
2018-07-30T13:38:20.833Z,5.78
2018-07-30T13:40:48.674Z,5.28
2018-07-30T13:43:16.686Z,5.90
2018-07-30T13:45:44.847Z,5.60
2018-07-30T13:48:13.016Z,5.42
2018-07-30T13:50:40.911Z,5.28
2018-07-30T13:53:08.832Z,6.08
2018-07-30T13:55:36.704Z,5.20
2018-07-30T13:58:04.694Z,5.80
2018-07-30T14:00:33.176Z,5.65
2018-07-30T14:03:01.169Z,5.87
2018-07-30T14:05:29.158Z,5.28
2018-07-30T14:07:57.053Z,5.17
2018-07-30T14:10:25.699Z,5.67
2018-07-30T14:12:53.796Z,5.50
2018-07-30T14:15:21.667Z,5.42
2018-07-30T14:17:49.904Z,5.60
2018-07-30T14:20:17.824Z,5.85
2018-07-30T14:22:45.612Z,5.10
2018-07-30T14:25:13.535Z,5.53
2018-07-30T14:27:42.176Z,5.00
2018-07-30T14:30:10.752Z,5.60
2018-07-30T14:32:39.433Z,5.20
2018-07-30T14:35:07.259Z,5.42
2018-07-30T14:37:35.190Z,5.72
2018-07-30T14:40:10.919Z,5.53
2018-07-30T14:42:38.859Z,5.50
2018-07-30T14:45:06.963Z,5.92
2018-07-30T14:47:34.875Z,5.60
2018-07-30T14:50:02.930Z,6.15
2018-07-30T14:52:30.837Z,5.75
2018-07-30T14:54:58.885Z,5.62
2018-07-30T14:57:26.849Z,5.47
2018-07-30T14:59:55.081Z,5.85
2018-07-30T15:02:23.071Z,5.60
2018-07-30T15:04:51.067Z,5.53
2018-07-30T15:07:19.679Z,5.55
2018-07-30T15:09:47.722Z,6.30
2018-07-30T15:12:15.559Z,6.08
2018-07-30T15:14:43.552Z,5.92
2018-07-30T15:17:11.339Z,5.55
2018-07-30T15:19:40.306Z,5.62
2018-07-30T15:22:08.157Z,5.33
2018-07-30T15:24:36.790Z,5.60
2018-07-30T15:27:05.248Z,5.65
2018-07-30T15:29:33.120Z,5.72
2018-07-30T15:32:01.708Z,5.92
2018-07-30T15:34:31.232Z,5.47
2018-07-30T15:36:59.923Z,5.20
2018-07-30T15:39:27.659Z,5.03
2018-07-30T15:41:55.618Z,5.55
2018-07-30T15:44:23.479Z,5.70
2018-07-30T15:46:51.762Z,5.10
2018-07-30T15:49:19.750Z,5.33
2018-07-30T15:51:48.375Z,6.25
2018-07-30T15:54:17.025Z,5.60
2018-07-30T15:56:44.891Z,4.62
2018-07-30T15:59:13.031Z,4.90
2018-07-30T16:01:41.687Z,4.87
2018-07-30T16:04:28.623Z,5.28
2018-07-30T16:06:57.867Z,5.00
2018-07-30T16:09:26.039Z,5.10
2018-07-30T16:11:54.671Z,4.62
2018-07-30T16:14:22.708Z,4.90
2018-07-30T16:16:51.346Z,4.92
2018-07-30T16:19:19.412Z,5.05
2018-07-30T16:21:47.451Z,4.75
2018-07-30T16:24:15.412Z,4.97
2018-07-30T16:26:43.677Z,4.60
2018-07-30T16:29:12.102Z,4.42
2018-07-30T16:31:40.328Z,4.58
2018-07-30T16:34:08.235Z,5.00
2018-07-30T16:36:36.063Z,4.60
2018-07-30T16:39:04.941Z,4.50
2018-07-30T16:41:33.216Z,4.62
2018-07-30T16:44:01.329Z,4.53
2018-07-30T16:46:29.238Z,4.50
2018-07-30T16:48:57.723Z,5.25
2018-07-30T16:51:25.824Z,4.78
2018-07-30T16:53:53.951Z,4.83
2018-07-30T16:56:22.467Z,4.67
2018-07-30T16:58:51.384Z,4.40
2018-07-30T17:01:19.338Z,4.65
2018-07-30T17:03:47.323Z,4.60
2018-07-30T17:06:15.688Z,4.60
2018-07-30T17:08:43.790Z,4.50
2018-07-30T17:11:12.805Z,4.87
2018-07-30T17:13:40.707Z,4.50
2018-07-30T17:16:08.825Z,4.72
2018-07-30T17:18:36.892Z,5.42
2018-07-30T17:21:04.762Z,5.03
2018-07-30T17:23:32.857Z,4.72
2018-07-30T17:26:02.103Z,5.00
2018-07-30T17:28:30.000Z,4.83
2018-07-30T17:30:58.086Z,4.67
2018-07-30T17:33:26.211Z,5.12
2018-07-30T17:35:54.786Z,4.55
2018-07-30T17:38:22.842Z,4.35
2018-07-30T17:40:50.843Z,4.83
2018-07-30T17:43:18.835Z,4.67
2018-07-30T17:45:46.769Z,4.80
2018-07-30T17:48:14.806Z,4.90
2018-07-30T17:50:42.763Z,4.75
2018-07-30T17:53:10.661Z,4.58
2018-07-30T17:55:38.685Z,5.45
2018-07-30T17:58:07.258Z,5.40
2018-07-30T18:00:35.231Z,5.20
2018-07-30T18:03:03.363Z,5.25
2018-07-30T18:05:31.786Z,5.10
2018-07-30T18:07:59.770Z,5.15
2018-07-30T18:10:27.886Z,4.92
2018-07-30T18:12:56.665Z,4.95
2018-07-30T18:15:24.996Z,5.17
2018-07-30T18:17:53.096Z,4.75
2018-07-30T18:20:21.055Z,5.37
2018-07-30T18:22:49.087Z,5.20
2018-07-30T18:25:17.482Z,5.50
2018-07-30T18:27:46.800Z,4.92
2018-07-30T18:30:21.972Z,4.75
2018-07-30T18:32:54.178Z,5.40
2018-07-30T18:35:30.824Z,5.87
2018-07-30T18:38:13.997Z,5.75
2018-07-30T18:43:38.993Z,5.30
2018-07-30T18:46:08.867Z,6.35
2018-07-30T18:48:44.640Z,9.03
2018-07-30T18:54:36.145Z,13.30
2018-07-30T19:20:00.804Z,14.30
2018-07-30T19:23:02.497Z,7.45
2018-07-30T19:25:35.139Z,6.53
2018-07-30T19:28:03.328Z,6.58
2018-07-30T19:31:00.809Z,6.35
2018-07-30T19:33:31.666Z,6.12
2018-07-30T19:36:22.871Z,6.12
2018-07-30T20:01:49.359Z,6.47
2018-07-30T20:07:02.068Z,6.17
2018-07-30T20:09:43.530Z,6.40
2018-07-30T20:12:12.734Z,6.80
2018-07-30T20:14:44.149Z,6.28
2018-07-30T20:17:13.379Z,7.10
2018-07-30T20:19:43.248Z,7.10
2018-07-30T20:22:14.927Z,6.70
2018-07-30T20:24:43.556Z,7.25
2018-07-30T20:27:13.909Z,7.78
2018-07-30T20:29:48.611Z,8.18
2018-07-30T20:32:18.258Z,7.28
2018-07-30T20:34:51.963Z,7.95
2018-07-30T20:37:23.366Z,7.87
2018-07-30T20:39:52.686Z,8.10
2018-07-30T20:42:20.580Z,7.47
2018-07-30T20:44:52.693Z,8.73
2018-07-30T20:47:23.831Z,8.98
2018-07-30T20:49:52.084Z,7.87
2018-07-30T20:52:40.337Z,7.85
2018-07-30T20:55:09.739Z,7.12
2018-07-30T20:57:47.778Z,7.53
2018-07-30T21:00:15.958Z,8.08
2018-07-30T21:02:45.366Z,8.58
2018-07-30T21:05:28.104Z,7.70
2018-07-30T21:07:59.716Z,8.15
2018-07-30T21:10:27.695Z,8.55
2018-07-30T21:12:55.859Z,7.92
2018-07-30T21:15:24.258Z,7.62
2018-07-30T21:17:52.323Z,8.90
2018-07-30T21:20:23.943Z,8.45
2018-07-30T21:22:52.084Z,8.35
2018-07-30T21:25:20.151Z,9.00
2018-07-30T21:27:48.803Z,8.53
2018-07-30T21:30:21.786Z,8.80
2018-07-30T21:32:51.089Z,8.63
2018-07-30T21:35:21.022Z,13.57
2018-07-30T21:37:49.371Z,10.27
2018-07-30T21:40:17.414Z,9.17
2018-07-30T21:42:48.537Z,9.43
2018-07-30T21:45:16.954Z,8.73
2018-07-30T21:47:45.103Z,9.13
2018-07-30T21:50:14.029Z,8.90
2018-07-30T21:52:42.068Z,9.37
2018-07-30T21:55:10.883Z,9.10
2018-07-30T21:57:38.835Z,17.53
2018-07-30T22:00:08.300Z,12.33
2018-07-30T22:02:36.743Z,10.67
2018-07-30T22:05:05.704Z,8.30
2018-07-30T22:07:33.867Z,8.50
2018-07-30T22:10:02.239Z,8.20
2018-07-30T22:12:31.948Z,9.17
2018-07-30T22:15:00.788Z,9.20
2018-07-30T22:17:28.785Z,8.80
2018-07-30T22:20:02.819Z,8.83
2018-07-30T22:22:47.083Z,9.80
2018-07-30T22:25:36.662Z,8.50
2018-07-30T22:28:23.252Z,8.40
2018-07-30T23:00:11.250Z,8.83
2018-07-30T23:02:39.084Z,9.53
2018-07-30T23:05:08.367Z,8.77
2018-07-30T23:07:36.708Z,10.17
2018-07-30T23:10:05.804Z,9.93
2018-07-30T23:14:06.437Z,10.17
2018-07-30T23:16:37.716Z,10.27
2018-07-30T23:19:06.302Z,10.63
2018-07-30T23:21:34.247Z,10.47
2018-07-30T23:24:02.096Z,10.73
2018-07-30T23:26:40.073Z,11.33
2018-07-30T23:29:07.964Z,10.53
2018-07-30T23:31:35.808Z,10.60
2018-07-30T23:34:04.507Z,11.13
2018-07-30T23:36:32.480Z,11.40
2018-07-30T23:39:00.787Z,9.67
2018-07-30T23:41:28.827Z,10.87
2018-07-30T23:43:56.813Z,10.77
2018-07-30T23:46:29.352Z,11.20
2018-07-30T23:48:57.577Z,10.53
2018-07-30T23:51:26.219Z,10.57
2018-07-30T23:53:54.171Z,9.80
2018-07-30T23:56:22.115Z,9.47
2018-07-30T23:58:50.059Z,11.47
